This is the latest recevied weather packets stored in our database for station/object IZ7EXI-13. If no packets are shown the sender has not sent any weather packets the latest 10 day(s).
| Time | Temp. | Humidity | Pressure | Rain* | Wind** | Luminosity | Snow |
|---|---|---|---|---|---|---|---|
| 1777224053 | 25.56° C | 18% | 1018.9 hPa | - | - | - | - |
| 1777223153 | 26.67° C | 18% | 1019 hPa | - | - | - | - |
| 1777222252 | 27.22° C | 17% | 1019.1 hPa | - | - | - | - |
| 1777221352 | 27.78° C | 17% | 1019.1 hPa | - | - | - | - |
| 1777220452 | 27.22° C | 18% | 1019.1 hPa | - | - | - | - |
| 1777219552 | 27.22° C | 21% | 1019.2 hPa | - | - | - | - |
| 1777218651 | 26.11° C | 23% | 1019.3 hPa | - | - | - | - |
| 1777217751 | 25.56° C | 25% | 1019.2 hPa | - | - | - | - |
| 1777216851 | 25° C | 27% | 1019.4 hPa | - | - | - | - |
| 1777215951 | 25.56° C | 28% | 1019.4 hPa | - | - | - | - |
| 1777215050 | 25° C | 32% | 1019.4 hPa | - | - | - | - |
| 1777214150 | 24.44° C | 31% | 1019.3 hPa | - | - | - | - |
| 1777213250 | 25° C | 27% | 1019.3 hPa | - | - | - | - |
| 1777212350 | 26.11° C | 22% | 1019.3 hPa | - | - | - | - |
| 1777211450 | 26.11° C | 22% | 1019.3 hPa | - | - | - | - |
| 1777210550 | 25.56° C | 21% | 1019.4 hPa | - | - | - | - |
| 1777209649 | 26.11° C | 22% | 1019.5 hPa | - | - | - | - |
| 1777208749 | 25.56° C | 30% | 1019.7 hPa | - | - | - | - |
| 1777207849 | 26.11° C | 21% | 1019.7 hPa | - | - | - | - |
| 1777206949 | 26.11° C | 23% | 1019.8 hPa | - | - | - | - |
| 1777206464 | 24.44° C | 29% | 1019.9 hPa | - | - | - | - |
| 1777206048 | 25° C | 29% | 1019.9 hPa | - | - | - | - |
| 1777205148 | 24.44° C | 29% | 1019.9 hPa | - | - | - | - |
| 1777204248 | 24.44° C | 31% | 1019.8 hPa | - | - | - | - |
| 1777203348 | 23.89° C | 39% | 1019.9 hPa | - | - | - | - |
* Rain since midnight (hover to see other rain measurements)
** Current wind speed in m/s (hover to see current wind gust speed)